sensor_id;sensor_type;location;lat;lon;timestamp;temperature;humidity
26952;DHT22;14507;52.418;13.398;2022-07-18T00:00:32;17.30;90.20
26952;DHT22;14507;52.418;13.398;2022-07-18T00:02:58;17.40;90.20
26952;DHT22;14507;52.418;13.398;2022-07-18T00:05:26;17.40;90.40
26952;DHT22;14507;52.418;13.398;2022-07-18T00:07:52;17.40;90.50
26952;DHT22;14507;52.418;13.398;2022-07-18T00:10:18;17.30;90.50
26952;DHT22;14507;52.418;13.398;2022-07-18T00:12:43;17.30;90.50
26952;DHT22;14507;52.418;13.398;2022-07-18T00:15:09;17.30;90.60
26952;DHT22;14507;52.418;13.398;2022-07-18T00:17:36;17.30;90.80
26952;DHT22;14507;52.418;13.398;2022-07-18T00:20:05;17.40;90.70
26952;DHT22;14507;52.418;13.398;2022-07-18T00:22:30;17.30;90.70
26952;DHT22;14507;52.418;13.398;2022-07-18T00:24:56;17.30;90.70
26952;DHT22;14507;52.418;13.398;2022-07-18T00:27:22;17.40;90.90
26952;DHT22;14507;52.418;13.398;2022-07-18T00:29:47;17.30;90.80
26952;DHT22;14507;52.418;13.398;2022-07-18T00:32:13;17.30;90.70
26952;DHT22;14507;52.418;13.398;2022-07-18T00:34:39;17.30;90.70
26952;DHT22;14507;52.418;13.398;2022-07-18T00:37:05;17.40;90.70
26952;DHT22;14507;52.418;13.398;2022-07-18T00:39:30;17.30;90.70
26952;DHT22;14507;52.418;13.398;2022-07-18T00:41:56;17.40;90.70
26952;DHT22;14507;52.418;13.398;2022-07-18T00:44:23;17.30;90.90
26952;DHT22;14507;52.418;13.398;2022-07-18T00:46:51;17.40;91.00
26952;DHT22;14507;52.418;13.398;2022-07-18T00:49:17;17.40;90.90
26952;DHT22;14507;52.418;13.398;2022-07-18T00:51:46;17.40;90.90
26952;DHT22;14507;52.418;13.398;2022-07-18T00:54:12;17.40;90.90
26952;DHT22;14507;52.418;13.398;2022-07-18T00:56:38;17.30;90.90
26952;DHT22;14507;52.418;13.398;2022-07-18T00:59:04;17.50;90.90
26952;DHT22;14507;52.418;13.398;2022-07-18T01:01:30;17.30;90.80
26952;DHT22;14507;52.418;13.398;2022-07-18T01:04:08;17.40;91.10
26952;DHT22;14507;52.418;13.398;2022-07-18T01:06:34;17.30;91.60
26952;DHT22;14507;52.418;13.398;2022-07-18T01:09:00;17.30;92.00
26952;DHT22;14507;52.418;13.398;2022-07-18T01:11:26;17.30;92.10
26952;DHT22;14507;52.418;13.398;2022-07-18T01:13:51;17.20;92.70
26952;DHT22;14507;52.418;13.398;2022-07-18T01:16:17;17.20;92.80
26952;DHT22;14507;52.418;13.398;2022-07-18T01:18:45;17.20;92.30
26952;DHT22;14507;52.418;13.398;2022-07-18T01:21:10;17.10;92.40
26952;DHT22;14507;52.418;13.398;2022-07-18T01:23:36;17.00;92.80
26952;DHT22;14507;52.418;13.398;2022-07-18T01:26:01;17.10;93.30
26952;DHT22;14507;52.418;13.398;2022-07-18T01:28:27;17.10;93.10
26952;DHT22;14507;52.418;13.398;2022-07-18T01:30:53;17.00;93.50
26952;DHT22;14507;52.418;13.398;2022-07-18T01:33:18;16.80;93.50
26952;DHT22;14507;52.418;13.398;2022-07-18T01:35:44;17.00;94.00
26952;DHT22;14507;52.418;13.398;2022-07-18T01:38:12;17.00;94.40
26952;DHT22;14507;52.418;13.398;2022-07-18T01:40:38;17.00;94.70
26952;DHT22;14507;52.418;13.398;2022-07-18T01:43:04;17.00;94.70
26952;DHT22;14507;52.418;13.398;2022-07-18T01:45:29;16.90;94.40
26952;DHT22;14507;52.418;13.398;2022-07-18T01:47:55;16.90;94.60
26952;DHT22;14507;52.418;13.398;2022-07-18T01:50:21;16.90;95.30
26952;DHT22;14507;52.418;13.398;2022-07-18T01:52:47;16.80;95.10
26952;DHT22;14507;52.418;13.398;2022-07-18T01:55:13;16.80;94.90
26952;DHT22;14507;52.418;13.398;2022-07-18T01:57:38;16.80;94.60
26952;DHT22;14507;52.418;13.398;2022-07-18T02:00:09;16.70;94.60
26952;DHT22;14507;52.418;13.398;2022-07-18T02:02:38;16.70;94.70
26952;DHT22;14507;52.418;13.398;2022-07-18T02:05:05;16.70;95.50
26952;DHT22;14507;52.418;13.398;2022-07-18T02:07:39;16.60;95.20
26952;DHT22;14507;52.418;13.398;2022-07-18T02:12:35;16.50;95.10
26952;DHT22;14507;52.418;13.398;2022-07-18T02:15:01;16.50;95.20
26952;DHT22;14507;52.418;13.398;2022-07-18T02:17:27;16.40;95.10
26952;DHT22;14507;52.418;13.398;2022-07-18T02:19:52;16.40;95.30
26952;DHT22;14507;52.418;13.398;2022-07-18T02:22:18;16.40;95.30
26952;DHT22;14507;52.418;13.398;2022-07-18T02:24:44;16.30;96.20
26952;DHT22;14507;52.418;13.398;2022-07-18T02:27:09;16.30;96.10
26952;DHT22;14507;52.418;13.398;2022-07-18T02:29:36;16.30;96.00
26952;DHT22;14507;52.418;13.398;2022-07-18T02:32:02;16.30;96.10
26952;DHT22;14507;52.418;13.398;2022-07-18T02:34:28;16.20;96.50
26952;DHT22;14507;52.418;13.398;2022-07-18T02:36:54;16.20;97.00
26952;DHT22;14507;52.418;13.398;2022-07-18T02:39:19;16.10;97.70
26952;DHT22;14507;52.418;13.398;2022-07-18T02:41:45;16.10;98.00
26952;DHT22;14507;52.418;13.398;2022-07-18T02:44:11;16.00;97.70
26952;DHT22;14507;52.418;13.398;2022-07-18T02:46:36;16.00;97.90
26952;DHT22;14507;52.418;13.398;2022-07-18T02:49:02;16.00;98.10
26952;DHT22;14507;52.418;13.398;2022-07-18T02:51:28;16.00;98.50
26952;DHT22;14507;52.418;13.398;2022-07-18T02:53:53;15.90;98.20
26952;DHT22;14507;52.418;13.398;2022-07-18T02:56:19;15.90;98.40
26952;DHT22;14507;52.418;13.398;2022-07-18T02:58:45;15.90;98.70
26952;DHT22;14507;52.418;13.398;2022-07-18T03:01:11;15.90;98.60
26952;DHT22;14507;52.418;13.398;2022-07-18T03:03:37;15.80;99.00
26952;DHT22;14507;52.418;13.398;2022-07-18T03:06:03;15.80;98.90
26952;DHT22;14507;52.418;13.398;2022-07-18T03:08:28;15.80;98.80
26952;DHT22;14507;52.418;13.398;2022-07-18T03:10:54;15.90;98.80
26952;DHT22;14507;52.418;13.398;2022-07-18T03:13:19;15.70;98.90
26952;DHT22;14507;52.418;13.398;2022-07-18T03:15:45;15.70;99.00
26952;DHT22;14507;52.418;13.398;2022-07-18T03:18:11;15.70;99.00
26952;DHT22;14507;52.418;13.398;2022-07-18T03:20:36;15.70;99.20
26952;DHT22;14507;52.418;13.398;2022-07-18T03:23:06;15.60;99.80
26952;DHT22;14507;52.418;13.398;2022-07-18T03:25:32;15.60;99.90
26952;DHT22;14507;52.418;13.398;2022-07-18T03:27:58;15.60;99.70
26952;DHT22;14507;52.418;13.398;2022-07-18T03:30:24;15.50;99.90
26952;DHT22;14507;52.418;13.398;2022-07-18T03:32:50;15.40;99.90
26952;DHT22;14507;52.418;13.398;2022-07-18T03:35:16;15.50;99.90
26952;DHT22;14507;52.418;13.398;2022-07-18T03:37:41;15.50;99.90
26952;DHT22;14507;52.418;13.398;2022-07-18T03:40:08;15.40;99.90
26952;DHT22;14507;52.418;13.398;2022-07-18T03:42:40;15.40;99.90
26952;DHT22;14507;52.418;13.398;2022-07-18T03:45:07;15.50;99.90
26952;DHT22;14507;52.418;13.398;2022-07-18T03:47:36;15.40;99.90
26952;DHT22;14507;52.418;13.398;2022-07-18T03:50:02;15.40;99.90
26952;DHT22;14507;52.418;13.398;2022-07-18T03:52:28;15.50;99.90
26952;DHT22;14507;52.418;13.398;2022-07-18T03:54:53;15.40;99.90
26952;DHT22;14507;52.418;13.398;2022-07-18T03:57:19;15.50;99.90
26952;DHT22;14507;52.418;13.398;2022-07-18T03:59:44;15.50;99.90
26952;DHT22;14507;52.418;13.398;2022-07-18T04:02:10;15.70;99.90
26952;DHT22;14507;52.418;13.398;2022-07-18T04:07:02;15.50;99.90
26952;DHT22;14507;52.418;13.398;2022-07-18T04:09:29;15.50;99.90
26952;DHT22;14507;52.418;13.398;2022-07-18T04:11:54;15.50;99.90
26952;DHT22;14507;52.418;13.398;2022-07-18T04:14:20;15.50;99.90
26952;DHT22;14507;52.418;13.398;2022-07-18T04:16:50;15.50;99.90
26952;DHT22;14507;52.418;13.398;2022-07-18T04:19:16;15.50;99.90
26952;DHT22;14507;52.418;13.398;2022-07-18T04:21:43;15.60;99.90
26952;DHT22;14507;52.418;13.398;2022-07-18T04:24:08;15.60;99.90
26952;DHT22;14507;52.418;13.398;2022-07-18T04:26:34;15.70;99.90
26952;DHT22;14507;52.418;13.398;2022-07-18T04:29:00;15.70;99.90
26952;DHT22;14507;52.418;13.398;2022-07-18T04:31:25;15.80;99.90
26952;DHT22;14507;52.418;13.398;2022-07-18T04:33:51;15.90;99.90
26952;DHT22;14507;52.418;13.398;2022-07-18T04:36:17;16.70;99.90
26952;DHT22;14507;52.418;13.398;2022-07-18T04:38:44;16.20;99.90
26952;DHT22;14507;52.418;13.398;2022-07-18T04:41:09;16.10;99.90
26952;DHT22;14507;52.418;13.398;2022-07-18T04:43:35;16.70;99.90
26952;DHT22;14507;52.418;13.398;2022-07-18T04:46:01;16.30;99.90
26952;DHT22;14507;52.418;13.398;2022-07-18T04:48:26;16.50;99.90
26952;DHT22;14507;52.418;13.398;2022-07-18T04:50:52;16.60;99.90
26952;DHT22;14507;52.418;13.398;2022-07-18T04:53:18;16.80;99.90
26952;DHT22;14507;52.418;13.398;2022-07-18T04:55:43;17.00;99.90
26952;DHT22;14507;52.418;13.398;2022-07-18T04:58:09;17.20;99.60
26952;DHT22;14507;52.418;13.398;2022-07-18T05:00:35;17.50;99.20
26952;DHT22;14507;52.418;13.398;2022-07-18T05:03:01;17.90;98.50
26952;DHT22;14507;52.418;13.398;2022-07-18T05:05:27;18.30;97.70
26952;DHT22;14507;52.418;13.398;2022-07-18T05:07:54;18.70;96.60
26952;DHT22;14507;52.418;13.398;2022-07-18T05:10:21;18.70;95.50
26952;DHT22;14507;52.418;13.398;2022-07-18T05:12:49;19.60;94.80
26952;DHT22;14507;52.418;13.398;2022-07-18T05:15:17;19.90;94.00
26952;DHT22;14507;52.418;13.398;2022-07-18T05:17:43;20.30;93.30
26952;DHT22;14507;52.418;13.398;2022-07-18T05:20:13;20.60;92.70
26952;DHT22;14507;52.418;13.398;2022-07-18T05:22:39;21.00;91.90
26952;DHT22;14507;52.418;13.398;2022-07-18T05:25:06;21.30;91.30
26952;DHT22;14507;52.418;13.398;2022-07-18T05:27:33;21.60;90.50
26952;DHT22;14507;52.418;13.398;2022-07-18T05:29:58;22.00;89.50
26952;DHT22;14507;52.418;13.398;2022-07-18T05:32:25;22.30;88.40
26952;DHT22;14507;52.418;13.398;2022-07-18T05:34:50;22.50;87.40
26952;DHT22;14507;52.418;13.398;2022-07-18T05:37:16;22.80;86.40
26952;DHT22;14507;52.418;13.398;2022-07-18T05:39:43;23.00;85.30
26952;DHT22;14507;52.418;13.398;2022-07-18T05:42:09;23.40;90.90
26952;DHT22;14507;52.418;13.398;2022-07-18T05:44:34;23.40;84.10
26952;DHT22;14507;52.418;13.398;2022-07-18T05:47:00;23.60;83.20
26952;DHT22;14507;52.418;13.398;2022-07-18T05:49:25;23.80;83.00
26952;DHT22;14507;52.418;13.398;2022-07-18T05:51:51;24.00;81.90
26952;DHT22;14507;52.418;13.398;2022-07-18T05:54:16;24.10;80.70
26952;DHT22;14507;52.418;13.398;2022-07-18T05:56:48;24.30;80.30
26952;DHT22;14507;52.418;13.398;2022-07-18T05:59:15;24.40;79.00
26952;DHT22;14507;52.418;13.398;2022-07-18T06:01:40;24.60;78.60
26952;DHT22;14507;52.418;13.398;2022-07-18T06:04:06;24.80;78.40
26952;DHT22;14507;52.418;13.398;2022-07-18T06:06:32;25.00;78.40
26952;DHT22;14507;52.418;13.398;2022-07-18T06:08:57;25.30;77.10
26952;DHT22;14507;52.418;13.398;2022-07-18T06:11:23;25.60;77.70
26952;DHT22;14507;52.418;13.398;2022-07-18T06:13:49;25.90;76.70
26952;DHT22;14507;52.418;13.398;2022-07-18T06:16:15;26.20;76.20
26952;DHT22;14507;52.418;13.398;2022-07-18T06:18:40;26.40;75.20
26952;DHT22;14507;52.418;13.398;2022-07-18T06:21:06;26.70;74.90
26952;DHT22;14507;52.418;13.398;2022-07-18T06:23:32;27.10;73.90
26952;DHT22;14507;52.418;13.398;2022-07-18T06:25:58;27.40;71.10
26952;DHT22;14507;52.418;13.398;2022-07-18T06:28:24;27.70;70.40
26952;DHT22;14507;52.418;13.398;2022-07-18T06:30:51;28.10;69.70
26952;DHT22;14507;52.418;13.398;2022-07-18T06:33:17;28.30;69.30
26952;DHT22;14507;52.418;13.398;2022-07-18T06:35:42;28.60;67.90
26952;DHT22;14507;52.418;13.398;2022-07-18T06:38:08;28.90;67.20
26952;DHT22;14507;52.418;13.398;2022-07-18T06:40:34;29.10;66.40
26952;DHT22;14507;52.418;13.398;2022-07-18T06:42:59;29.40;66.20
26952;DHT22;14507;52.418;13.398;2022-07-18T06:45:25;29.50;65.90
26952;DHT22;14507;52.418;13.398;2022-07-18T06:47:50;29.60;64.60
26952;DHT22;14507;52.418;13.398;2022-07-18T06:50:17;29.80;63.40
26952;DHT22;14507;52.418;13.398;2022-07-18T06:52:43;30.00;62.70
26952;DHT22;14507;52.418;13.398;2022-07-18T06:55:11;30.20;62.90
26952;DHT22;14507;52.418;13.398;2022-07-18T06:57:37;30.30;61.90
26952;DHT22;14507;52.418;13.398;2022-07-18T07:00:04;30.30;62.50
26952;DHT22;14507;52.418;13.398;2022-07-18T07:02:30;30.50;61.10
26952;DHT22;14507;52.418;13.398;2022-07-18T07:04:56;30.70;60.90
26952;DHT22;14507;52.418;13.398;2022-07-18T07:07:21;30.80;60.60
26952;DHT22;14507;52.418;13.398;2022-07-18T07:09:47;31.50;61.50
26952;DHT22;14507;52.418;13.398;2022-07-18T07:12:12;31.20;59.30
26952;DHT22;14507;52.418;13.398;2022-07-18T07:14:38;31.70;62.20
26952;DHT22;14507;52.418;13.398;2022-07-18T07:17:04;31.60;58.30
26952;DHT22;14507;52.418;13.398;2022-07-18T07:19:29;31.80;63.40
26952;DHT22;14507;52.418;13.398;2022-07-18T07:21:55;32.10;56.20
26952;DHT22;14507;52.418;13.398;2022-07-18T07:24:21;32.30;55.70
26952;DHT22;14507;52.418;13.398;2022-07-18T07:26:47;32.60;55.00
26952;DHT22;14507;52.418;13.398;2022-07-18T07:29:12;32.80;53.90
26952;DHT22;14507;52.418;13.398;2022-07-18T07:31:38;33.30;55.20
26952;DHT22;14507;52.418;13.398;2022-07-18T07:34:04;34.50;52.90
26952;DHT22;14507;52.418;13.398;2022-07-18T07:36:29;34.00;52.70
26952;DHT22;14507;52.418;13.398;2022-07-18T07:38:55;34.50;53.60
26952;DHT22;14507;52.418;13.398;2022-07-18T07:41:20;34.70;52.30
26952;DHT22;14507;52.418;13.398;2022-07-18T07:43:46;34.90;51.20
26952;DHT22;14507;52.418;13.398;2022-07-18T07:46:12;35.00;49.80
26952;DHT22;14507;52.418;13.398;2022-07-18T07:48:38;35.20;50.30
26952;DHT22;14507;52.418;13.398;2022-07-18T07:51:04;35.20;51.40
26952;DHT22;14507;52.418;13.398;2022-07-18T07:53:30;35.30;51.60
26952;DHT22;14507;52.418;13.398;2022-07-18T07:55:56;35.50;49.10
26952;DHT22;14507;52.418;13.398;2022-07-18T07:58:22;35.60;50.10
26952;DHT22;14507;52.418;13.398;2022-07-18T08:00:48;35.70;50.50
26952;DHT22;14507;52.418;13.398;2022-07-18T08:03:13;35.60;48.40
26952;DHT22;14507;52.418;13.398;2022-07-18T08:05:46;35.70;49.40
26952;DHT22;14507;52.418;13.398;2022-07-18T08:08:12;35.70;47.40
26952;DHT22;14507;52.418;13.398;2022-07-18T08:10:38;35.70;48.60
26952;DHT22;14507;52.418;13.398;2022-07-18T08:13:03;35.80;48.70
26952;DHT22;14507;52.418;13.398;2022-07-18T08:15:29;35.50;49.90
26952;DHT22;14507;52.418;13.398;2022-07-18T08:18:01;35.50;48.80
26952;DHT22;14507;52.418;13.398;2022-07-18T08:20:29;35.60;47.70
26952;DHT22;14507;52.418;13.398;2022-07-18T08:23:04;35.50;48.90
26952;DHT22;14507;52.418;13.398;2022-07-18T08:25:32;35.50;47.60
26952;DHT22;14507;52.418;13.398;2022-07-18T08:27:59;35.50;49.00
26952;DHT22;14507;52.418;13.398;2022-07-18T08:30:25;35.30;48.20
26952;DHT22;14507;52.418;13.398;2022-07-18T08:32:50;35.10;48.80
26952;DHT22;14507;52.418;13.398;2022-07-18T08:35:16;34.60;48.50
26952;DHT22;14507;52.418;13.398;2022-07-18T08:37:42;34.30;49.10
26952;DHT22;14507;52.418;13.398;2022-07-18T08:40:09;34.00;48.20
26952;DHT22;14507;52.418;13.398;2022-07-18T08:42:35;33.80;48.10
26952;DHT22;14507;52.418;13.398;2022-07-18T08:45:02;33.70;48.20
26952;DHT22;14507;52.418;13.398;2022-07-18T08:47:31;33.60;48.70
26952;DHT22;14507;52.418;13.398;2022-07-18T08:49:58;33.50;48.40
26952;DHT22;14507;52.418;13.398;2022-07-18T08:52:24;33.40;48.10
26952;DHT22;14507;52.418;13.398;2022-07-18T08:54:50;33.10;48.20
26952;DHT22;14507;52.418;13.398;2022-07-18T08:57:17;32.90;50.30
26952;DHT22;14507;52.418;13.398;2022-07-18T08:59:42;32.70;51.10
26952;DHT22;14507;52.418;13.398;2022-07-18T09:02:08;32.60;52.50
26952;DHT22;14507;52.418;13.398;2022-07-18T09:04:39;32.60;51.60
26952;DHT22;14507;52.418;13.398;2022-07-18T09:07:07;32.60;50.10
26952;DHT22;14507;52.418;13.398;2022-07-18T09:09:35;32.80;50.60
26952;DHT22;14507;52.418;13.398;2022-07-18T09:12:06;32.90;51.90
26952;DHT22;14507;52.418;13.398;2022-07-18T09:14:42;33.10;50.70
26952;DHT22;14507;52.418;13.398;2022-07-18T09:19:34;33.20;51.50
26952;DHT22;14507;52.418;13.398;2022-07-18T09:22:16;33.20;52.00
26952;DHT22;14507;52.418;13.398;2022-07-18T09:32:38;33.10;49.00
26952;DHT22;14507;52.418;13.398;2022-07-18T09:35:25;33.00;49.90
26952;DHT22;14507;52.418;13.398;2022-07-18T09:40:30;32.90;51.00
26952;DHT22;14507;52.418;13.398;2022-07-18T09:42:59;32.80;50.90
26952;DHT22;14507;52.418;13.398;2022-07-18T09:45:48;32.90;51.30
26952;DHT22;14507;52.418;13.398;2022-07-18T09:48:17;32.90;50.30
26952;DHT22;14507;52.418;13.398;2022-07-18T09:53:17;32.90;48.00
26952;DHT22;14507;52.418;13.398;2022-07-18T09:58:23;32.50;50.40
26952;DHT22;14507;52.418;13.398;2022-07-18T10:00:50;32.40;51.10
26952;DHT22;14507;52.418;13.398;2022-07-18T10:03:17;32.40;51.20
26952;DHT22;14507;52.418;13.398;2022-07-18T10:05:44;32.40;52.20
26952;DHT22;14507;52.418;13.398;2022-07-18T10:08:13;32.40;53.20
26952;DHT22;14507;52.418;13.398;2022-07-18T10:10:41;32.30;50.60
26952;DHT22;14507;52.418;13.398;2022-07-18T10:13:08;32.30;51.50
26952;DHT22;14507;52.418;13.398;2022-07-18T10:15:36;32.20;49.40
26952;DHT22;14507;52.418;13.398;2022-07-18T10:18:06;32.20;50.50
26952;DHT22;14507;52.418;13.398;2022-07-18T10:20:34;32.10;49.00
26952;DHT22;14507;52.418;13.398;2022-07-18T10:23:27;32.10;50.10
26952;DHT22;14507;52.418;13.398;2022-07-18T10:26:17;32.20;48.00
26952;DHT22;14507;52.418;13.398;2022-07-18T10:36:33;31.80;50.00
26952;DHT22;14507;52.418;13.398;2022-07-18T10:39:10;31.80;49.90
26952;DHT22;14507;52.418;13.398;2022-07-18T10:44:34;31.60;50.30
26952;DHT22;14507;52.418;13.398;2022-07-18T10:57:40;31.50;49.70
26952;DHT22;14507;52.418;13.398;2022-07-18T11:00:11;31.40;49.60
26952;DHT22;14507;52.418;13.398;2022-07-18T11:03:03;31.50;50.70
26952;DHT22;14507;52.418;13.398;2022-07-18T11:21:19;31.80;48.90
26952;DHT22;14507;52.418;13.398;2022-07-18T11:23:49;31.80;51.70
26952;DHT22;14507;52.418;13.398;2022-07-18T11:26:17;31.70;50.20
26952;DHT22;14507;52.418;13.398;2022-07-18T11:28:46;31.70;50.90
26952;DHT22;14507;52.418;13.398;2022-07-18T11:31:12;31.80;48.40
26952;DHT22;14507;52.418;13.398;2022-07-18T11:33:44;31.90;49.10
26952;DHT22;14507;52.418;13.398;2022-07-18T11:36:14;31.70;48.50
26952;DHT22;14507;52.418;13.398;2022-07-18T11:38:51;31.80;48.60
26952;DHT22;14507;52.418;13.398;2022-07-18T11:41:18;31.70;48.40
26952;DHT22;14507;52.418;13.398;2022-07-18T11:43:45;31.70;50.30
26952;DHT22;14507;52.418;13.398;2022-07-18T11:46:13;31.70;46.70
26952;DHT22;14507;52.418;13.398;2022-07-18T11:48:40;31.70;47.00
26952;DHT22;14507;52.418;13.398;2022-07-18T11:51:23;31.70;48.40
26952;DHT22;14507;52.418;13.398;2022-07-18T11:53:51;31.70;47.80
26952;DHT22;14507;52.418;13.398;2022-07-18T11:56:18;31.70;50.40
26952;DHT22;14507;52.418;13.398;2022-07-18T11:58:45;31.60;50.40
26952;DHT22;14507;52.418;13.398;2022-07-18T12:01:11;31.50;49.10
26952;DHT22;14507;52.418;13.398;2022-07-18T12:03:41;31.50;49.70
26952;DHT22;14507;52.418;13.398;2022-07-18T12:06:15;31.40;49.50
26952;DHT22;14507;52.418;13.398;2022-07-18T12:08:52;31.40;48.00
26952;DHT22;14507;52.418;13.398;2022-07-18T12:11:29;31.30;48.00
26952;DHT22;14507;52.418;13.398;2022-07-18T12:13:59;31.20;48.70
26952;DHT22;14507;52.418;13.398;2022-07-18T12:18:57;31.20;50.70
26952;DHT22;14507;52.418;13.398;2022-07-18T12:21:24;31.20;53.10
26952;DHT22;14507;52.418;13.398;2022-07-18T12:23:50;31.20;51.40
26952;DHT22;14507;52.418;13.398;2022-07-18T12:26:29;31.20;51.70
26952;DHT22;14507;52.418;13.398;2022-07-18T12:29:08;31.20;50.20
26952;DHT22;14507;52.418;13.398;2022-07-18T12:31:42;31.00;50.00
26952;DHT22;14507;52.418;13.398;2022-07-18T12:34:16;31.00;48.40
26952;DHT22;14507;52.418;13.398;2022-07-18T12:36:52;31.00;51.30
26952;DHT22;14507;52.418;13.398;2022-07-18T12:39:27;31.00;51.00
26952;DHT22;14507;52.418;13.398;2022-07-18T12:41:53;31.10;48.60
26952;DHT22;14507;52.418;13.398;2022-07-18T12:44:19;31.10;49.30
26952;DHT22;14507;52.418;13.398;2022-07-18T12:46:44;31.10;49.20
26952;DHT22;14507;52.418;13.398;2022-07-18T12:49:10;31.10;50.70
26952;DHT22;14507;52.418;13.398;2022-07-18T12:51:35;31.00;50.90
26952;DHT22;14507;52.418;13.398;2022-07-18T12:54:01;31.00;49.30
26952;DHT22;14507;52.418;13.398;2022-07-18T12:56:27;30.90;49.90
26952;DHT22;14507;52.418;13.398;2022-07-18T12:58:52;30.90;51.10
26952;DHT22;14507;52.418;13.398;2022-07-18T13:01:18;31.00;52.00
26952;DHT22;14507;52.418;13.398;2022-07-18T13:03:44;31.10;52.70
26952;DHT22;14507;52.418;13.398;2022-07-18T13:06:09;31.10;52.10
26952;DHT22;14507;52.418;13.398;2022-07-18T13:08:35;31.10;50.80
26952;DHT22;14507;52.418;13.398;2022-07-18T13:11:00;31.20;52.60
26952;DHT22;14507;52.418;13.398;2022-07-18T13:13:26;31.20;52.00
26952;DHT22;14507;52.418;13.398;2022-07-18T13:15:52;31.20;50.40
26952;DHT22;14507;52.418;13.398;2022-07-18T13:18:17;31.20;51.40
26952;DHT22;14507;52.418;13.398;2022-07-18T13:20:43;31.20;52.10
26952;DHT22;14507;52.418;13.398;2022-07-18T13:23:09;31.20;50.00
26952;DHT22;14507;52.418;13.398;2022-07-18T13:25:36;31.20;50.70
26952;DHT22;14507;52.418;13.398;2022-07-18T13:28:02;31.10;50.20
26952;DHT22;14507;52.418;13.398;2022-07-18T13:30:28;31.00;48.60
26952;DHT22;14507;52.418;13.398;2022-07-18T13:32:54;30.80;49.30
26952;DHT22;14507;52.418;13.398;2022-07-18T13:35:20;30.70;50.70
26952;DHT22;14507;52.418;13.398;2022-07-18T13:37:46;30.60;50.50
26952;DHT22;14507;52.418;13.398;2022-07-18T13:40:12;30.60;50.80
26952;DHT22;14507;52.418;13.398;2022-07-18T13:42:39;30.70;51.60
26952;DHT22;14507;52.418;13.398;2022-07-18T13:45:05;30.70;50.90
26952;DHT22;14507;52.418;13.398;2022-07-18T13:47:32;30.70;50.90
26952;DHT22;14507;52.418;13.398;2022-07-18T13:49:57;30.80;50.60
26952;DHT22;14507;52.418;13.398;2022-07-18T13:52:23;30.80;51.90
26952;DHT22;14507;52.418;13.398;2022-07-18T13:54:49;30.80;51.90
26952;DHT22;14507;52.418;13.398;2022-07-18T13:57:16;30.80;51.80
26952;DHT22;14507;52.418;13.398;2022-07-18T13:59:42;30.80;50.70
26952;DHT22;14507;52.418;13.398;2022-07-18T14:02:08;30.80;51.40
26952;DHT22;14507;52.418;13.398;2022-07-18T14:04:33;30.90;51.20
26952;DHT22;14507;52.418;13.398;2022-07-18T14:06:59;30.90;50.90
26952;DHT22;14507;52.418;13.398;2022-07-18T14:09:24;30.90;50.30
26952;DHT22;14507;52.418;13.398;2022-07-18T14:11:50;31.00;51.20
26952;DHT22;14507;52.418;13.398;2022-07-18T14:14:16;30.90;50.50
26952;DHT22;14507;52.418;13.398;2022-07-18T14:16:41;31.00;51.60
26952;DHT22;14507;52.418;13.398;2022-07-18T14:19:07;31.00;49.80
26952;DHT22;14507;52.418;13.398;2022-07-18T14:21:32;30.90;50.20
26952;DHT22;14507;52.418;13.398;2022-07-18T14:23:58;30.80;52.70
26952;DHT22;14507;52.418;13.398;2022-07-18T14:26:24;30.80;50.90
26952;DHT22;14507;52.418;13.398;2022-07-18T14:28:51;30.70;50.40
26952;DHT22;14507;52.418;13.398;2022-07-18T14:31:17;30.80;50.60
26952;DHT22;14507;52.418;13.398;2022-07-18T14:33:42;30.80;50.20
26952;DHT22;14507;52.418;13.398;2022-07-18T14:36:08;30.80;51.00
26952;DHT22;14507;52.418;13.398;2022-07-18T14:38:34;30.90;49.90
26952;DHT22;14507;52.418;13.398;2022-07-18T14:40:59;31.00;51.20
26952;DHT22;14507;52.418;13.398;2022-07-18T14:43:25;31.00;50.50
26952;DHT22;14507;52.418;13.398;2022-07-18T14:45:51;31.00;50.00
26952;DHT22;14507;52.418;13.398;2022-07-18T14:48:17;31.00;52.00
26952;DHT22;14507;52.418;13.398;2022-07-18T14:50:43;30.90;52.30
26952;DHT22;14507;52.418;13.398;2022-07-18T14:53:09;30.70;50.80
26952;DHT22;14507;52.418;13.398;2022-07-18T14:55:34;30.60;52.30
26952;DHT22;14507;52.418;13.398;2022-07-18T14:58:00;30.60;51.30
26952;DHT22;14507;52.418;13.398;2022-07-18T15:00:28;30.70;52.10
26952;DHT22;14507;52.418;13.398;2022-07-18T15:02:54;30.60;52.30
26952;DHT22;14507;52.418;13.398;2022-07-18T15:05:20;30.50;50.70
26952;DHT22;14507;52.418;13.398;2022-07-18T15:07:45;30.40;50.70
26952;DHT22;14507;52.418;13.398;2022-07-18T15:10:11;30.40;50.70
26952;DHT22;14507;52.418;13.398;2022-07-18T15:12:37;30.40;50.10
26952;DHT22;14507;52.418;13.398;2022-07-18T15:15:04;30.40;51.90
26952;DHT22;14507;52.418;13.398;2022-07-18T15:17:30;30.30;51.00
26952;DHT22;14507;52.418;13.398;2022-07-18T15:19:55;30.20;52.50
26952;DHT22;14507;52.418;13.398;2022-07-18T15:22:21;30.20;50.40
26952;DHT22;14507;52.418;13.398;2022-07-18T15:24:46;30.20;51.00
26952;DHT22;14507;52.418;13.398;2022-07-18T15:27:12;30.20;52.10
26952;DHT22;14507;52.418;13.398;2022-07-18T15:29:37;30.20;52.80
26952;DHT22;14507;52.418;13.398;2022-07-18T15:32:03;30.20;51.40
26952;DHT22;14507;52.418;13.398;2022-07-18T15:34:37;30.20;51.50
26952;DHT22;14507;52.418;13.398;2022-07-18T15:37:03;30.30;51.60
26952;DHT22;14507;52.418;13.398;2022-07-18T15:39:29;30.30;50.30
26952;DHT22;14507;52.418;13.398;2022-07-18T15:41:54;30.30;50.00
26952;DHT22;14507;52.418;13.398;2022-07-18T15:44:20;30.30;50.80
26952;DHT22;14507;52.418;13.398;2022-07-18T15:46:46;30.30;52.20
26952;DHT22;14507;52.418;13.398;2022-07-18T15:49:11;30.40;54.10
26952;DHT22;14507;52.418;13.398;2022-07-18T15:51:37;30.50;52.20
26952;DHT22;14507;52.418;13.398;2022-07-18T15:54:03;30.50;52.70
26952;DHT22;14507;52.418;13.398;2022-07-18T15:56:29;30.50;52.10
26952;DHT22;14507;52.418;13.398;2022-07-18T15:58:55;30.50;52.70
26952;DHT22;14507;52.418;13.398;2022-07-18T16:01:20;30.50;51.80
26952;DHT22;14507;52.418;13.398;2022-07-18T16:03:46;30.50;51.00
26952;DHT22;14507;52.418;13.398;2022-07-18T16:06:12;30.50;50.70
26952;DHT22;14507;52.418;13.398;2022-07-18T16:08:38;30.40;50.50
26952;DHT22;14507;52.418;13.398;2022-07-18T16:11:04;30.40;50.50
26952;DHT22;14507;52.418;13.398;2022-07-18T16:13:29;30.50;50.60
26952;DHT22;14507;52.418;13.398;2022-07-18T16:15:56;30.50;50.30